Felicity, California
Current Conditions -  °F | °C
As of 4:57 AM on Tuesday 21 Oct 2014 (Local Time) from KNYL Reporting Station
Clear Clear  
Wind Chill: 73°   Ceiling: Unl
Heat Index: 73°   Visibility: 10mi
Dew Point: 60°   Wind: 0mph
Humidity: 64%   Direction: NA
Pressure: 29.79"   Gusts: NA
Location:  32.9392°N, 114.9°W
Report Text: KNYL 211157Z 00000KT 10SM CLR 23/16 A2979 RMK AO2 SLP084 T02280156 10261 20228 55000
Loading
Personal Weather Stations






























Interactive Weather Map
Tropical Storm Tracking
New forecast layout! Learn more

10-Day Weather Forecast

Advertisements
Track Severe Weather on mobile